Time;durP1;ratioP1;P1;durP2;ratioP2;P2;SDS_P1;SDS_P2;PMS_P1;PMS_P2;Temp;Humidity;BMP_temperature;BMP_pressure;BME280_temperature;BME280_humidity;BME280_pressure;Samples;Min_cycle;Max_cycle;Signal;HPM_P1;HPM_P2
2022/10/18 00:02:21;;;;;;;24.58;13.93;;;12.90;99.90;;;;;;5135428;27;20047;-64
2022/10/18 00:04:47;;;;;;;57.83;21.05;;;12.90;99.90;;;;;;5116940;27;20035;-64
2022/10/18 00:07:12;;;;;;;35.35;17.10;;;12.90;99.90;;;;;;5135316;27;20046;-64
2022/10/18 00:09:38;;;;;;;37.35;17.27;;;12.80;99.90;;;;;;5116789;27;20050;-64
2022/10/18 00:12:04;;;;;;;64.72;24.88;;;12.80;99.90;;;;;;5117129;27;20878;-64
2022/10/18 00:14:30;;;;;;;40.30;18.65;;;12.80;99.90;;;;;;5116768;27;20664;-64
2022/10/18 00:16:56;;;;;;;89.18;27.88;;;12.80;99.90;;;;;;5135255;27;20046;-65
2022/10/18 00:19:22;;;;;;;40.65;20.45;;;12.80;99.90;;;;;;5115780;27;20104;-64
2022/10/18 00:21:51;;;;;;;91.25;31.33;;;12.80;99.90;;;;;;5115109;27;20081;-64
2022/10/18 00:24:17;;;;;;;46.47;21.40;;;12.80;99.90;;;;;;5116471;27;20043;-64
2022/10/18 00:26:43;;;;;;;125.70;38.03;;;12.80;99.90;;;;;;5133831;27;20039;-64
2022/10/18 00:29:14;;;;;;;268.40;54.42;;;12.80;99.90;;;;;;5134876;27;20104;-64
2022/10/18 00:31:40;;;;;;;57.55;26.00;;;12.80;99.90;;;;;;5116258;27;20083;-64
2022/10/18 00:34:09;;;;;;;99.50;33.95;;;12.80;99.90;;;;;;5116615;27;20070;-64
2022/10/18 00:36:35;;;;;;;87.95;31.38;;;12.80;99.90;;;;;;5134822;27;20437;-64
2022/10/18 00:39:03;;;;;;;135.68;35.85;;;12.80;99.90;;;;;;5116083;27;20043;-64
2022/10/18 00:41:32;;;;;;;76.13;22.67;;;12.70;99.90;;;;;;5134848;27;20031;-64
2022/10/18 00:44:00;;;;;;;38.97;16.85;;;12.70;99.90;;;;;;5134629;27;20464;-64
2022/10/18 00:46:32;;;;;;;36.47;16.50;;;12.60;99.90;;;;;;5116153;27;20514;-64
2022/10/18 00:49:00;;;;;;;65.00;25.50;;;12.60;99.90;;;;;;5134546;27;20047;-64
2022/10/18 00:51:31;;;;;;;31.38;14.43;;;12.50;99.90;;;;;;5113986;27;20046;-64
2022/10/18 00:53:57;;;;;;;35.60;16.42;;;12.50;99.90;;;;;;5116154;27;20039;-64
2022/10/18 00:56:23;;;;;;;59.63;20.85;;;12.40;99.90;;;;;;5097383;27;20667;-64
2022/10/18 00:58:50;;;;;;;265.25;38.47;;;12.30;99.90;;;;;;5113572;28;20729;-64
2022/10/18 01:01:16;;;;;;;782.90;77.60;;;12.30;99.90;;;;;;5095321;28;20043;-64
2022/10/18 01:03:42;;;;;;;936.08;78.22;;;12.20;99.90;;;;;;5113632;28;20027;-64
2022/10/18 01:06:08;;;;;;;866.00;78.75;;;12.20;99.90;;;;;;5095231;28;20464;-64
2022/10/18 01:08:54;;;;;;;466.45;41.40;;;12.10;99.90;;;;;;5095549;28;20429;-64
2022/10/18 01:11:51;;;;;;;564.10;48.30;;;12.10;99.90;;;;;;5095434;28;20078;-64
2022/10/18 01:14:33;;;;;;;507.75;38.60;;;12.00;99.90;;;;;;5113449;28;20420;-65
2022/10/18 01:17:35;;;;;;;584.15;53.25;;;12.00;99.90;;;;;;5078444;28;20039;-64
2022/10/18 01:20:24;;;;;;;359.08;28.75;;;11.90;99.90;;;;;;5111141;28;20035;-65
2022/10/18 01:22:59;;;;;;;464.35;43.45;;;11.80;99.90;;;;;;5113238;28;20039;-65
2022/10/18 01:26:00;;;;;;;573.38;47.80;;;11.70;99.90;;;;;;5095153;28;20097;-65
2022/10/18 01:28:34;;;;;;;467.48;39.70;;;11.70;99.90;;;;;;5043815;28;20058;-65
2022/10/18 01:31:15;;;;;;;596.10;54.58;;;11.70;99.90;;;;;;5115413;27;20048;-65
2022/10/18 01:33:51;;;;;;;620.92;59.10;;;11.70;99.90;;;;;;5136012;27;20054;-64
2022/10/18 01:36:22;;;;;;;595.53;57.55;;;11.60;99.90;;;;;;5154464;27;20061;-64
2022/10/18 01:38:51;;;;;;;480.50;43.58;;;11.60;99.90;;;;;;5118276;27;20043;-65
2022/10/18 01:41:18;;;;;;;542.03;52.38;;;11.50;99.90;;;;;;5135266;27;20067;-65
2022/10/18 01:43:47;;;;;;;754.78;82.43;;;11.60;99.90;;;;;;5135434;27;20041;-64
2022/10/18 01:46:18;;;;;;;545.72;48.45;;;11.60;99.90;;;;;;5135488;27;20038;-65
2022/10/18 01:48:43;;;;;;;567.60;57.67;;;11.60;99.90;;;;;;5154167;27;20046;-66
2022/10/18 01:51:10;;;;;;;590.55;62.10;;;11.60;99.90;;;;;;5133508;27;20681;-65
2022/10/18 01:53:36;;;;;;;551.22;51.95;;;11.60;99.90;;;;;;5135578;27;20473;-65
2022/10/18 01:56:13;;;;;;;493.58;53.83;;;11.60;99.90;;;;;;5135464;27;20078;-65
2022/10/18 01:58:45;;;;;;;609.53;61.17;;;11.60;99.90;;;;;;5135229;27;20043;-65
2022/10/18 02:01:28;;;;;;;675.47;79.25;;;11.60;99.90;;;;;;5135277;27;20035;-65
2022/10/18 02:04:00;;;;;;;552.95;54.33;;;11.50;99.90;;;;;;5153802;27;20043;-65
2022/10/18 02:06:34;;;;;;;471.65;52.15;;;11.50;99.90;;;;;;5135086;27;20035;-65
2022/10/18 02:09:10;;;;;;;581.75;55.00;;;11.50;99.90;;;;;;5153853;27;20039;-66
2022/10/18 02:11:38;;;;;;;465.13;48.13;;;11.50;99.90;;;;;;5135314;27;20039;-66
2022/10/18 02:14:13;;;;;;;432.65;55.15;;;11.50;99.90;;;;;;5153662;27;20039;-66
2022/10/18 02:16:41;;;;;;;382.85;48.70;;;11.50;99.90;;;;;;5135121;27;20073;-66
2022/10/18 02:19:25;;;;;;;474.42;62.97;;;11.60;99.90;;;;;;5134695;27;20047;-65
2022/10/18 02:21:53;;;;;;;439.92;60.90;;;11.60;99.90;;;;;;5133692;27;20038;-65
2022/10/18 02:24:22;;;;;;;333.35;48.50;;;11.60;99.90;;;;;;5134806;27;20070;-66
2022/10/18 02:26:48;;;;;;;237.43;44.15;;;11.60;99.90;;;;;;5153389;27;20037;-66
2022/10/18 02:29:14;;;;;;;323.98;53.30;;;11.60;99.90;;;;;;5117617;27;20125;-66
2022/10/18 02:31:46;;;;;;;479.23;74.07;;;11.60;99.90;;;;;;5114152;27;20046;-66
2022/10/18 02:34:23;;;;;;;263.88;43.92;;;11.70;99.90;;;;;;5133441;27;20043;-65
2022/10/18 02:36:55;;;;;;;231.63;41.90;;;11.70;99.90;;;;;;5134892;27;20050;-65
2022/10/18 02:39:30;;;;;;;438.48;71.30;;;11.80;99.90;;;;;;5153146;27;20393;-65
2022/10/18 02:41:56;;;;;;;262.58;49.08;;;11.80;99.90;;;;;;5117694;27;20587;-65
2022/10/18 02:44:23;;;;;;;321.27;54.05;;;11.80;99.90;;;;;;5134556;27;20043;-65
2022/10/18 02:46:49;;;;;;;382.35;62.17;;;11.80;99.90;;;;;;5153090;27;20038;-66
2022/10/18 02:49:15;;;;;;;392.30;65.38;;;11.80;99.90;;;;;;5152466;27;20035;-65
2022/10/18 02:51:41;;;;;;;342.58;58.28;;;11.90;99.90;;;;;;5115503;27;20039;-65
2022/10/18 02:54:07;;;;;;;343.10;56.80;;;11.80;99.90;;;;;;5134485;27;20494;-66
2022/10/18 02:56:34;;;;;;;319.48;55.67;;;11.90;99.90;;;;;;5134607;27;20439;-66
2022/10/18 02:59:00;;;;;;;291.75;50.22;;;11.80;99.90;;;;;;5134344;27;20534;-66
2022/10/18 03:01:26;;;;;;;296.90;48.42;;;11.80;99.90;;;;;;5152886;27;20038;-66
2022/10/18 03:03:52;;;;;;;375.30;54.65;;;11.80;99.90;;;;;;5152979;27;20027;-66
2022/10/18 03:06:18;;;;;;;358.15;57.83;;;11.90;99.90;;;;;;5134280;27;20043;-66
2022/10/18 03:08:44;;;;;;;322.60;56.08;;;11.80;99.90;;;;;;5152856;27;20035;-66
2022/10/18 03:11:09;;;;;;;376.77;58.33;;;11.90;99.90;;;;;;5151753;27;20043;-66
2022/10/18 03:13:35;;;;;;;248.27;42.60;;;11.90;99.90;;;;;;5132869;27;20383;-66
2022/10/18 03:16:01;;;;;;;384.88;56.08;;;11.90;99.90;;;;;;5151578;27;20042;-66
2022/10/18 03:18:27;;;;;;;474.42;72.40;;;11.90;99.90;;;;;;5151335;27;20074;-66
2022/10/18 03:20:52;;;;;;;434.30;64.53;;;11.90;99.90;;;;;;5130384;27;20045;-66
2022/10/18 03:23:18;;;;;;;355.45;50.35;;;12.00;99.90;;;;;;5151335;27;20034;-66
2022/10/18 03:25:44;;;;;;;387.25;54.50;;;12.00;99.90;;;;;;5151288;27;20041;-66
2022/10/18 03:28:10;;;;;;;296.98;45.03;;;12.00;99.90;;;;;;5133190;27;20046;-66
2022/10/18 03:30:37;;;;;;;491.05;73.35;;;12.00;99.90;;;;;;5151402;27;20518;-66
2022/10/18 03:33:04;;;;;;;497.20;71.78;;;12.00;99.90;;;;;;5132233;27;20090;-66
2022/10/18 03:35:30;;;;;;;225.23;37.83;;;12.00;99.90;;;;;;5111981;28;20093;-66
2022/10/18 03:37:56;;;;;;;489.95;72.32;;;12.00;99.90;;;;;;5095010;28;20039;-66
2022/10/18 03:40:21;;;;;;;324.15;50.65;;;12.00;99.90;;;;;;5112018;28;20088;-66
2022/10/18 03:42:47;;;;;;;429.20;63.45;;;12.00;99.90;;;;;;5112353;28;20123;-66
2022/10/18 03:45:13;;;;;;;426.88;68.10;;;12.00;99.90;;;;;;5112321;28;20471;-66
2022/10/18 03:47:38;;;;;;;499.58;74.75;;;12.00;99.90;;;;;;5111860;28;20410;-66
2022/10/18 03:50:04;;;;;;;509.85;76.85;;;12.00;99.90;;;;;;5128118;28;20082;-66
2022/10/18 03:52:30;;;;;;;532.38;75.60;;;12.00;99.90;;;;;;5112272;28;20096;-66
2022/10/18 03:54:56;;;;;;;477.38;67.07;;;12.00;99.90;;;;;;5111913;28;20406;-66
2022/10/18 03:57:22;;;;;;;411.83;57.45;;;12.00;99.90;;;;;;5112067;28;20043;-67
2022/10/18 03:59:47;;;;;;;206.00;36.30;;;12.00;99.90;;;;;;5130335;27;20077;-67
2022/10/18 04:02:13;;;;;;;297.75;54.38;;;11.90;99.90;;;;;;5133944;27;20118;-67
2022/10/18 04:04:39;;;;;;;260.30;45.00;;;11.90;99.90;;;;;;5115658;27;20051;-66
2022/10/18 04:07:05;;;;;;;299.05;54.70;;;11.90;99.90;;;;;;5098374;27;20538;-66
2022/10/18 04:09:31;;;;;;;114.13;28.40;;;11.80;99.90;;;;;;5133786;27;20036;-66
2022/10/18 04:11:56;;;;;;;291.95;48.05;;;11.80;99.90;;;;;;5133979;27;20406;-66
2022/10/18 04:14:22;;;;;;;505.92;69.13;;;11.80;99.90;;;;;;5134067;27;20100;-66
2022/10/18 04:16:48;;;;;;;149.73;39.30;;;11.80;99.90;;;;;;5115274;27;20133;-66
2022/10/18 04:19:13;;;;;;;236.82;48.13;;;11.80;99.90;;;;;;5133908;27;20043;-66
2022/10/18 04:21:39;;;;;;;71.85;25.63;;;11.80;99.90;;;;;;5113182;27;20118;-66
2022/10/18 04:24:05;;;;;;;228.57;45.53;;;11.70;99.90;;;;;;5133542;27;20035;-66
2022/10/18 04:26:31;;;;;;;257.67;49.05;;;11.70;99.90;;;;;;5133468;27;20255;-66
2022/10/18 04:28:57;;;;;;;218.23;46.22;;;11.80;99.90;;;;;;5098598;27;20617;-66
2022/10/18 04:31:22;;;;;;;307.08;54.72;;;11.70;99.90;;;;;;5134429;27;20059;-66
2022/10/18 04:33:48;;;;;;;314.75;57.65;;;11.70;99.90;;;;;;5115011;27;20043;-66
2022/10/18 04:36:14;;;;;;;202.93;44.25;;;11.70;99.90;;;;;;5133305;27;20114;-66
2022/10/18 04:38:40;;;;;;;56.47;23.70;;;11.70;99.90;;;;;;5133179;27;20039;-66
2022/10/18 04:41:05;;;;;;;161.10;38.63;;;11.70;99.90;;;;;;5114808;27;20050;-66
2022/10/18 04:43:31;;;;;;;109.05;27.23;;;11.70;99.90;;;;;;5114680;27;20031;-66
2022/10/18 04:45:57;;;;;;;535.45;76.75;;;11.70;99.90;;;;;;5133032;27;20114;-66
2022/10/18 04:48:23;;;;;;;574.33;74.75;;;11.70;99.90;;;;;;5114595;27;20039;-66
2022/10/18 04:50:50;;;;;;;145.38;29.88;;;11.60;99.90;;;;;;5130661;27;20079;-66
2022/10/18 04:53:17;;;;;;;198.18;36.67;;;11.60;99.90;;;;;;5114690;27;20251;-66
2022/10/18 04:55:47;;;;;;;338.45;51.20;;;11.60;99.90;;;;;;5114527;27;20055;-66
2022/10/18 04:58:14;;;;;;;308.83;46.55;;;11.50;99.90;;;;;;5114362;27;20051;-66
2022/10/18 05:00:40;;;;;;;343.45;53.42;;;11.40;99.90;;;;;;5114411;27;20059;-66
2022/10/18 05:03:06;;;;;;;50.67;15.23;;;11.40;99.90;;;;;;5114617;27;20035;-66
2022/10/18 05:05:32;;;;;;;134.30;32.28;;;11.30;99.90;;;;;;5114338;27;20042;-66
2022/10/18 05:07:58;;;;;;;76.60;19.73;;;11.20;99.90;;;;;;5114268;27;20038;-66
2022/10/18 05:10:24;;;;;;;236.60;35.55;;;11.20;99.90;;;;;;5114189;27;20043;-66
2022/10/18 05:12:49;;;;;;;356.92;48.33;;;11.20;99.90;;;;;;5113410;27;20039;-66
2022/10/18 05:15:15;;;;;;;375.45;52.05;;;11.10;99.90;;;;;;5132494;27;20039;-66
2022/10/18 05:17:41;;;;;;;87.70;23.02;;;11.00;99.90;;;;;;5132381;27;20071;-66
2022/10/18 05:20:07;;;;;;;398.42;57.10;;;11.00;99.90;;;;;;5095018;27;20057;-65
2022/10/18 05:22:33;;;;;;;155.43;30.05;;;11.00;99.90;;;;;;5113982;27;20041;-67
2022/10/18 05:24:58;;;;;;;333.55;49.78;;;10.90;99.90;;;;;;5114031;27;20126;-68
2022/10/18 05:27:24;;;;;;;446.38;57.15;;;10.90;99.90;;;;;;5113869;27;20061;-66
2022/10/18 05:29:50;;;;;;;357.02;50.25;;;10.90;99.90;;;;;;5113750;27;20051;-66
2022/10/18 05:32:16;;;;;;;133.43;30.25;;;10.80;99.90;;;;;;5144135;27;20043;-66
2022/10/18 05:34:42;;;;;;;185.02;37.17;;;10.80;99.90;;;;;;5152815;27;20133;-66
2022/10/18 05:37:07;;;;;;;210.52;34.38;;;10.70;99.90;;;;;;5152841;27;20137;-67
2022/10/18 05:39:33;;;;;;;323.98;47.53;;;10.70;99.90;;;;;;5152645;27;20042;-67
2022/10/18 05:41:59;;;;;;;173.10;35.72;;;10.70;99.90;;;;;;5134117;27;20041;-67
2022/10/18 05:44:25;;;;;;;121.68;30.85;;;10.60;99.90;;;;;;5152834;27;20077;-67
2022/10/18 05:46:51;;;;;;;394.38;50.67;;;10.60;99.90;;;;;;5114503;27;20069;-66
2022/10/18 05:49:18;;;;;;;82.78;23.23;;;10.60;99.90;;;;;;5131721;27;20466;-66
2022/10/18 05:51:43;;;;;;;172.32;36.67;;;10.50;99.90;;;;;;5110990;27;20050;-67
2022/10/18 05:54:11;;;;;;;331.55;45.35;;;10.50;99.90;;;;;;5113464;27;20399;-67
2022/10/18 05:56:36;;;;;;;135.05;26.27;;;10.40;99.90;;;;;;5131815;27;20049;-66
2022/10/18 05:59:06;;;;;;;229.82;37.95;;;10.40;99.90;;;;;;5131742;27;20055;-66
2022/10/18 06:01:32;;;;;;;219.20;40.55;;;10.40;99.90;;;;;;5113207;27;20047;-66
2022/10/18 06:03:58;;;;;;;109.40;21.67;;;10.40;99.90;;;;;;5131638;27;20232;-66
2022/10/18 06:06:24;;;;;;;86.93;18.23;;;10.30;99.90;;;;;;5113120;27;20039;-66
2022/10/18 06:08:49;;;;;;;287.05;39.10;;;10.30;99.90;;;;;;5131694;27;20042;-66
2022/10/18 06:11:17;;;;;;;272.95;35.00;;;10.30;99.90;;;;;;5096095;27;20043;-66
2022/10/18 06:13:45;;;;;;;364.95;44.75;;;10.30;99.90;;;;;;5131641;27;20103;-66
2022/10/18 06:16:13;;;;;;;198.25;30.95;;;10.20;99.90;;;;;;5131453;27;20114;-66
2022/10/18 06:18:39;;;;;;;333.55;42.55;;;10.20;99.90;;;;;;5131244;27;20126;-66
2022/10/18 06:21:06;;;;;;;418.40;48.45;;;10.20;99.90;;;;;;5110608;27;20078;-66
2022/10/18 06:23:32;;;;;;;438.50;50.80;;;10.20;99.90;;;;;;5112263;28;20066;-66
2022/10/18 06:26:02;;;;;;;254.43;32.80;;;10.20;99.90;;;;;;5130809;27;20031;-66
2022/10/18 06:28:32;;;;;;;257.67;31.55;;;10.10;99.90;;;;;;5107966;28;20399;-66
2022/10/18 06:30:58;;;;;;;;;;;10.00;99.90;;;;;;5128136;27;20039;-66
2022/10/18 06:33:24;;;;;;;121.40;27.48;;;10.00;99.90;;;;;;5112890;27;20006;-65
2022/10/18 06:35:58;;;;;;;540.30;59.00;;;9.90;99.90;;;;;;5112851;27;20373;-66
2022/10/18 06:38:24;;;;;;;135.98;21.90;;;9.90;99.90;;;;;;5112794;27;20093;-66
2022/10/18 06:40:50;;;;;;;504.10;54.10;;;9.90;99.90;;;;;;5131342;27;20063;-65
2022/10/18 06:43:16;;;;;;;248.52;26.30;;;9.80;99.90;;;;;;5113422;27;20066;-66
2022/10/18 06:45:42;;;;;;;419.90;40.58;;;9.80;99.90;;;;;;5113414;27;20035;-66
2022/10/18 06:48:08;;;;;;;409.35;39.40;;;9.80;99.90;;;;;;5112924;27;20459;-65
2022/10/18 06:50:33;;;;;;;501.27;56.13;;;9.70;99.90;;;;;;5111794;27;20053;-66
2022/10/18 06:53:00;;;;;;;289.42;30.02;;;9.70;99.90;;;;;;5113838;27;20039;-68
2022/10/18 06:55:25;;;;;;;443.73;54.45;;;9.70;99.90;;;;;;5113805;28;20050;-65
2022/10/18 06:57:52;;;;;;;422.38;54.20;;;9.70;99.90;;;;;;5113243;28;20039;-65
2022/10/18 07:00:18;;;;;;;510.15;54.22;;;9.80;99.90;;;;;;5132127;28;20047;-65
2022/10/18 07:02:43;;;;;;;464.15;43.45;;;9.80;99.90;;;;;;5113937;28;20031;-65
2022/10/18 07:05:10;;;;;;;521.30;41.67;;;9.90;99.90;;;;;;5113928;28;20051;-66
2022/10/18 07:07:37;;;;;;;539.80;43.83;;;9.90;99.90;;;;;;5132208;28;20031;-65
2022/10/18 07:10:04;;;;;;;345.58;28.92;;;9.90;99.90;;;;;;5096747;28;20125;-65
2022/10/18 07:12:30;;;;;;;477.40;49.20;;;9.90;99.90;;;;;;5097017;28;20074;-66
2022/10/18 07:14:56;;;;;;;270.35;29.13;;;9.90;99.90;;;;;;5131757;28;20108;-65
2022/10/18 07:17:22;;;;;;;133.82;20.48;;;9.90;99.90;;;;;;5131909;28;20506;-65
2022/10/18 07:19:47;;;;;;;190.48;26.95;;;9.90;99.90;;;;;;5129555;28;20051;-66
2022/10/18 07:22:13;;;;;;;58.92;19.38;;;10.00;99.90;;;;;;5131925;28;20038;-66
2022/10/18 07:24:39;;;;;;;75.03;21.55;;;10.00;99.90;;;;;;5096497;28;20042;-66
2022/10/18 07:27:05;;;;;;;25.83;13.68;;;10.10;99.90;;;;;;5113662;28;20045;-65
2022/10/18 07:29:31;;;;;;;25.88;13.75;;;10.20;99.90;;;;;;5113692;28;20107;-65
2022/10/18 07:31:57;;;;;;;41.10;16.20;;;10.30;99.90;;;;;;5131685;28;20130;-66
2022/10/18 07:34:22;;;;;;;24.88;13.63;;;10.30;99.90;;;;;;5132049;28;20599;-65
2022/10/18 07:36:48;;;;;;;27.77;14.45;;;10.40;99.90;;;;;;5116499;27;20121;-65
2022/10/18 07:39:14;;;;;;;29.00;15.95;;;10.50;99.90;;;;;;5135900;27;20036;-65
2022/10/18 07:41:40;;;;;;;38.47;18.48;;;10.60;99.90;;;;;;5135918;27;20118;-65
2022/10/18 07:44:05;;;;;;;51.88;18.63;;;10.80;99.90;;;;;;5117556;27;20134;-66
2022/10/18 07:46:31;;;;;;;48.78;21.00;;;10.90;99.90;;;;;;5100358;27;20124;-66
2022/10/18 07:49:00;;;;;;;63.47;22.65;;;11.00;99.90;;;;;;5117241;27;20104;-66
2022/10/18 07:51:26;;;;;;;41.17;20.75;;;11.10;99.90;;;;;;5114954;27;20047;-66
2022/10/18 07:53:52;;;;;;;34.90;18.15;;;11.30;99.90;;;;;;5111666;27;20058;-65
2022/10/18 07:56:20;;;;;;;35.60;18.85;;;11.40;99.90;;;;;;5135327;27;20039;-65
2022/10/18 07:58:50;;;;;;;33.88;19.05;;;11.60;99.90;;;;;;5111471;28;20095;-65
2022/10/18 08:01:16;;;;;;;35.38;17.52;;;11.70;99.90;;;;;;5115062;27;20039;-65
2022/10/18 08:03:42;;;;;;;23.60;12.15;;;12.00;99.90;;;;;;5117081;27;20039;-65
2022/10/18 08:06:10;;;;;;;32.80;14.80;;;12.10;99.90;;;;;;5116905;27;20035;-65
2022/10/18 08:08:38;;;;;;;23.48;10.63;;;12.40;99.90;;;;;;5116669;27;20492;-65
2022/10/18 08:11:18;;;;;;;18.63;9.63;;;12.80;99.90;;;;;;5116579;27;20035;-65
2022/10/18 08:13:44;;;;;;;12.48;6.47;;;13.40;99.90;;;;;;5134750;27;20046;-65
2022/10/18 08:16:12;;;;;;;8.60;5.35;;;13.90;99.90;;;;;;5116440;27;20043;-65
2022/10/18 08:18:39;;;;;;;10.98;4.45;;;14.50;99.90;;;;;;5134912;27;20128;-65
2022/10/18 08:21:07;;;;;;;8.85;4.25;;;15.00;99.90;;;;;;5132744;27;20106;-65
2022/10/18 08:23:34;;;;;;;9.90;4.15;;;15.50;99.90;;;;;;5116376;27;20039;-65
2022/10/18 08:26:05;;;;;;;7.70;4.22;;;16.20;99.90;;;;;;5116527;27;20078;-65
2022/10/18 08:28:31;;;;;;;8.80;3.38;;;16.90;99.90;;;;;;5116420;27;20042;-65
2022/10/18 08:31:02;;;;;;;9.07;3.35;;;17.60;99.90;;;;;;5116340;27;20051;-65
2022/10/18 08:33:28;;;;;;;7.85;3.58;;;18.10;99.90;;;;;;5134744;27;20051;-65
2022/10/18 08:35:58;;;;;;;9.25;3.17;;;18.70;99.90;;;;;;5116130;27;20042;-65
2022/10/18 08:38:24;;;;;;;7.50;2.70;;;19.20;99.90;;;;;;5116150;27;20042;-65
2022/10/18 08:40:50;;;;;;;10.18;3.50;;;19.50;99.90;;;;;;5115922;27;20391;-65
2022/10/18 08:43:51;;;;;;;6.78;2.85;;;19.50;99.90;;;;;;5123803;27;20032;-65
2022/10/18 08:46:17;;;;;;;8.10;2.92;;;19.80;99.90;;;;;;5097410;27;20578;-65
2022/10/18 08:48:51;;;;;;;8.77;3.20;;;20.00;99.90;;;;;;5118833;27;20040;-64
2022/10/18 08:51:31;;;;;;;9.00;2.70;;;20.40;99.90;;;;;;5097997;27;20047;-65
2022/10/18 08:54:13;;;;;;;;;;;20.70;99.90;;;;;;5136155;27;20087;-65
2022/10/18 08:56:46;;;;;;;16.35;3.50;;;20.90;99.90;;;;;;5099807;27;19919;-65
2022/10/18 08:59:17;;;;;;;8.93;2.72;;;21.30;99.90;;;;;;5135181;27;20035;-64
2022/10/18 09:02:00;;;;;;;12.30;2.95;;;21.60;99.90;;;;;;5116921;27;20443;-64
2022/10/18 09:04:32;;;;;;;9.05;2.50;;;22.00;99.90;;;;;;5116757;27;20122;-64
2022/10/18 09:07:16;;;;;;;5.75;2.13;;;22.10;99.90;;;;;;5116770;27;20084;-64
2022/10/18 09:10:10;;;;;;;8.05;2.22;;;22.10;99.90;;;;;;5116734;27;20043;-64
2022/10/18 09:13:04;;;;;;;7.45;2.28;;;22.00;99.90;;;;;;5116952;27;20431;-64
2022/10/18 09:15:39;;;;;;;11.10;2.20;;;22.10;99.90;;;;;;5096526;27;20047;-64
2022/10/18 09:18:18;;;;;;;11.38;2.67;;;22.40;99.90;;;;;;5134845;27;20116;-64
2022/10/18 09:20:55;;;;;;;12.15;2.88;;;22.60;99.90;;;;;;5132728;27;20046;-64
2022/10/18 09:23:29;;;;;;;11.20;2.53;;;22.50;99.90;;;;;;5116623;27;20546;-64
2022/10/18 09:26:02;;;;;;;11.25;2.33;;;22.50;99.90;;;;;;5116825;27;20081;-64
2022/10/18 09:28:40;;;;;;;6.88;1.60;;;22.60;99.90;;;;;;5096982;27;20047;-64
2022/10/18 09:31:17;;;;;;;8.23;2.47;;;22.80;99.90;;;;;;5095812;28;20057;-65
2022/10/18 09:34:15;;;;;;;11.90;1.67;;;23.00;99.90;;;;;;5113831;27;20047;-65
2022/10/18 09:36:42;;;;;;;8.75;1.83;;;23.20;99.90;;;;;;5102910;27;20057;-65
2022/10/18 09:39:12;;;;;;;11.85;2.03;;;23.30;99.90;;;;;;5116147;27;20043;-65
2022/10/18 09:42:01;;;;;;;10.73;2.25;;;23.30;99.90;;;;;;5116141;27;20483;-65
2022/10/18 09:44:38;;;;;;;9.05;2.03;;;23.40;99.90;;;;;;5099326;27;20387;-65
2022/10/18 09:47:31;;;;;;;12.43;1.70;;;23.60;99.90;;;;;;5134553;27;20031;-65
2022/10/18 09:50:01;;;;;;;10.43;2.35;;;23.40;99.90;;;;;;5096286;28;20851;-65
2022/10/18 09:52:40;;;;;;;11.35;2.00;;;23.20;99.90;;;;;;5095624;28;20047;-65
2022/10/18 09:55:18;;;;;;;14.38;2.60;;;23.20;99.90;;;;;;5113979;28;20092;-65
2022/10/18 09:57:50;;;;;;;7.75;2.10;;;23.40;99.90;;;;;;5113859;28;20118;-65
2022/10/18 10:00:24;;;;;;;10.20;1.92;;;23.40;99.90;;;;;;5103558;28;20551;-65
2022/10/18 10:02:50;;;;;;;9.52;2.30;;;23.30;99.90;;;;;;5095441;28;20531;-65
2022/10/18 10:05:15;;;;;;;8.52;1.80;;;23.10;99.90;;;;;;5113686;28;20123;-65
2022/10/18 10:07:46;;;;;;;9.40;2.22;;;23.10;99.90;;;;;;5129856;27;20091;-65
2022/10/18 10:10:24;;;;;;;10.38;2.03;;;23.20;99.90;;;;;;5113315;28;20044;-65
2022/10/18 10:13:17;;;;;;;10.45;2.70;;;23.50;99.90;;;;;;5111644;27;20039;-65
2022/10/18 10:16:00;;;;;;;13.07;2.35;;;23.10;99.90;;;;;;5127979;27;20043;-65
2022/10/18 10:18:30;;;;;;;12.38;1.98;;;22.20;99.90;;;;;;5115545;27;20446;-65
2022/10/18 10:21:04;;;;;;;10.60;2.05;;;21.90;99.90;;;;;;5096256;27;20131;-65
2022/10/18 10:23:33;;;;;;;16.95;2.50;;;22.00;99.90;;;;;;5134461;27;20053;-65
2022/10/18 10:26:05;;;;;;;12.98;2.35;;;22.40;99.90;;;;;;5115529;27;20035;-65
2022/10/18 10:28:40;;;;;;;10.75;2.20;;;22.80;99.90;;;;;;5115518;27;20116;-66
2022/10/18 10:31:18;;;;;;;17.52;2.58;;;23.40;99.90;;;;;;5133817;27;20043;-66
2022/10/18 10:33:47;;;;;;;9.50;2.03;;;23.80;99.90;;;;;;5113083;28;20492;-66
2022/10/18 10:36:20;;;;;;;10.40;2.25;;;23.90;99.90;;;;;;5095172;28;20051;-65
2022/10/18 10:39:03;;;;;;;9.88;1.83;;;23.80;99.90;;;;;;5094709;28;20046;-65
2022/10/18 10:41:30;;;;;;;10.35;2.95;;;23.40;99.90;;;;;;5094703;28;20051;-66
2022/10/18 10:43:56;;;;;;;10.50;1.77;;;23.20;99.90;;;;;;5091444;28;20075;-66
2022/10/18 10:46:25;;;;;;;11.30;1.88;;;23.10;99.90;;;;;;5093046;28;20054;-66
2022/10/18 10:48:56;;;;;;;9.23;1.58;;;22.80;99.90;;;;;;5095841;28;20040;-65
2022/10/18 10:51:35;;;;;;;11.32;1.70;;;22.10;99.90;;;;;;5093802;28;20048;-65
2022/10/18 10:54:04;;;;;;;5.60;1.33;;;21.00;99.90;;;;;;5074068;28;20117;-65
2022/10/18 10:56:34;;;;;;;11.57;2.95;;;20.10;99.90;;;;;;5092127;28;20048;-65
2022/10/18 10:59:13;;;;;;;10.77;1.80;;;19.60;99.90;;;;;;5068761;28;20059;-65
2022/10/18 11:01:40;;;;;;;9.37;1.67;;;19.60;99.90;;;;;;5093168;28;20035;-65
2022/10/18 11:04:26;;;;;;;10.82;2.38;;;19.90;99.90;;;;;;5093568;28;20043;-65
2022/10/18 11:07:10;;;;;;;14.43;2.30;;;20.10;99.90;;;;;;5111591;28;20073;-65
2022/10/18 11:09:57;;;;;;;7.45;1.52;;;20.10;99.90;;;;;;5093520;28;20131;-65
2022/10/18 11:16:31;;;;;;;10.23;2.10;;;19.80;99.90;;;;;;5115806;28;20115;-65
2022/10/18 11:18:58;;;;;;;15.32;1.70;;;19.80;99.90;;;;;;5116015;28;20410;-65
2022/10/18 11:21:30;;;;;;;8.25;1.50;;;19.90;99.90;;;;;;5113504;28;20042;-65
2022/10/18 11:23:58;;;;;;;12.38;1.98;;;19.80;99.90;;;;;;5097504;28;20040;-64
2022/10/18 11:26:53;;;;;;;8.73;1.60;;;19.10;99.90;;;;;;5115674;28;20047;-64
2022/10/18 11:29:35;;;;;;;9.32;1.50;;;18.40;99.90;;;;;;5115552;28;20081;-64
2022/10/18 11:32:23;;;;;;;8.85;1.75;;;17.80;99.90;;;;;;5109306;28;20058;-64
2022/10/18 11:35:07;;;;;;;13.38;1.42;;;17.40;99.90;;;;;;5097378;28;20052;-64
2022/10/18 11:37:58;;;;;;;12.13;2.00;;;17.30;99.90;;;;;;5128289;27;20070;-65
2022/10/18 11:40:37;;;;;;;12.52;1.67;;;17.30;99.90;;;;;;5114939;27;20503;-64
2022/10/18 11:43:23;;;;;;;9.20;2.40;;;17.40;99.90;;;;;;5116016;27;20062;-64
2022/10/18 11:46:11;;;;;;;7.30;1.27;;;17.40;99.90;;;;;;5134095;27;20088;-64
2022/10/18 11:49:05;;;;;;;18.58;2.10;;;17.40;99.90;;;;;;5115885;27;20051;-64
2022/10/18 11:51:48;;;;;;;8.70;1.65;;;17.30;99.90;;;;;;5114659;27;20049;-64
2022/10/18 11:54:35;;;;;;;7.68;1.27;;;17.50;99.90;;;;;;5117165;27;20075;-64
2022/10/18 11:57:18;;;;;;;10.23;2.10;;;17.50;99.90;;;;;;5135374;27;20082;-64
2022/10/18 12:00:18;;;;;;;7.75;1.30;;;17.40;99.90;;;;;;5135270;27;20558;-64
2022/10/18 12:03:16;;;;;;;6.00;1.60;;;17.20;99.90;;;;;;5133944;27;20035;-64
2022/10/18 12:05:46;;;;;;;13.15;1.70;;;17.20;99.90;;;;;;5116882;27;20479;-64
2022/10/18 12:08:38;;;;;;;9.73;1.63;;;17.40;99.90;;;;;;5116951;27;20514;-65
2022/10/18 12:11:15;;;;;;;9.25;2.25;;;17.40;99.90;;;;;;5135197;27;20035;-64
2022/10/18 12:13:53;;;;;;;11.30;1.70;;;17.20;99.90;;;;;;5116842;27;20106;-64
2022/10/18 12:16:28;;;;;;;13.20;1.70;;;17.00;99.90;;;;;;5115414;27;20039;-64
2022/10/18 12:19:02;;;;;;;17.40;2.05;;;17.10;99.90;;;;;;5115344;27;20043;-65
2022/10/18 12:21:34;;;;;;;9.30;1.75;;;17.20;99.90;;;;;;5131045;27;20138;-64
2022/10/18 12:24:15;;;;;;;7.40;1.42;;;17.20;99.90;;;;;;5098442;27;20078;-64
2022/10/18 12:26:47;;;;;;;9.50;1.65;;;17.00;99.90;;;;;;5133675;27;20028;-64
2022/10/18 12:29:34;;;;;;;9.65;1.85;;;16.90;99.90;;;;;;5098472;27;20035;-64
2022/10/18 12:32:21;;;;;;;9.15;1.90;;;16.70;99.90;;;;;;5114995;27;20055;-64
2022/10/18 12:34:56;;;;;;;11.13;1.98;;;16.50;99.90;;;;;;5133497;27;20112;-64
2022/10/18 12:38:03;;;;;;;9.65;1.70;;;16.30;99.90;;;;;;5133362;27;20175;-64
2022/10/18 12:40:47;;;;;;;8.63;1.98;;;16.10;99.90;;;;;;5097871;27;20079;-64
2022/10/18 12:43:26;;;;;;;11.52;1.90;;;15.90;99.90;;;;;;5114800;27;20054;-64
2022/10/18 12:45:59;;;;;;;12.50;1.92;;;15.80;99.90;;;;;;5115079;27;20036;-64
2022/10/18 12:48:48;;;;;;;9.90;1.90;;;15.80;99.90;;;;;;5132881;27;20393;-64
2022/10/18 12:51:20;;;;;;;7.65;1.48;;;15.80;99.90;;;;;;5112350;27;20039;-64
2022/10/18 12:54:08;;;;;;;9.82;1.75;;;15.80;99.90;;;;;;5132970;27;20043;-64